createdAt,value
2022-08-21T00:01:40.775Z,81.76
2022-08-21T00:04:09.934Z,83.40
2022-08-21T00:06:38.583Z,84.01
2022-08-21T00:09:09.662Z,84.46
2022-08-21T00:11:39.292Z,84.72
2022-08-21T00:14:10.237Z,84.13
2022-08-21T00:16:38.337Z,84.66
2022-08-21T00:19:08.647Z,84.80
2022-08-21T00:21:37.048Z,85.56
2022-08-21T00:24:06.212Z,82.12
2022-08-21T00:26:34.648Z,82.74
2022-08-21T00:29:04.801Z,78.34
2022-08-21T00:31:32.094Z,77.86
2022-08-21T00:34:01.026Z,79.59
2022-08-21T00:36:29.937Z,80.99
2022-08-21T00:38:57.462Z,81.13
2022-08-21T00:41:37.102Z,80.88
2022-08-21T00:44:08.835Z,80.55
2022-08-21T00:46:37.256Z,82.10
2022-08-21T00:49:05.524Z,81.66
2022-08-21T00:51:44.505Z,83.41
2022-08-21T00:54:18.183Z,86.96
2022-08-21T00:56:48.995Z,86.94
2022-08-21T00:59:19.080Z,84.62
2022-08-21T01:01:46.588Z,86.18
2022-08-21T01:04:14.674Z,88.07
2022-08-21T01:06:43.539Z,87.78
2022-08-21T01:09:10.799Z,87.17
2022-08-21T01:11:38.181Z,86.81
2022-08-21T01:14:05.058Z,86.97
2022-08-21T01:16:33.800Z,87.70
2022-08-21T01:19:00.679Z,86.31
2022-08-21T01:21:28.900Z,86.67
2022-08-21T01:23:58.147Z,86.36
2022-08-21T01:26:34.591Z,86.29
2022-08-21T01:29:15.794Z,86.03
2022-08-21T01:31:43.515Z,86.24
2022-08-21T01:34:11.660Z,85.68
2022-08-21T01:36:40.315Z,87.15
2022-08-21T01:39:07.325Z,87.17
2022-08-21T01:41:34.442Z,87.39
2022-08-21T01:44:01.503Z,90.32
2022-08-21T01:46:28.723Z,93.01
2022-08-21T01:48:55.645Z,93.92
2022-08-21T01:51:22.564Z,93.50
2022-08-21T01:53:50.946Z,92.78
2022-08-21T01:56:18.845Z,91.79
2022-08-21T01:58:48.711Z,91.87
2022-08-21T02:01:16.007Z,91.07
2022-08-21T02:03:43.273Z,90.48
2022-08-21T02:06:16.294Z,90.34
2022-08-21T02:08:43.121Z,90.00
2022-08-21T02:11:11.354Z,89.53
2022-08-21T02:13:38.214Z,88.80
2022-08-21T02:16:06.074Z,89.93
2022-08-21T02:18:32.923Z,91.29
2022-08-21T02:20:59.860Z,92.42
2022-08-21T02:23:27.592Z,92.77
2022-08-21T02:25:54.966Z,93.72
2022-08-21T02:28:23.351Z,92.19
2022-08-21T02:30:51.127Z,90.34
2022-08-21T02:33:20.159Z,89.90
2022-08-21T02:35:50.291Z,89.78
2022-08-21T02:38:22.003Z,89.93
2022-08-21T02:40:51.336Z,91.56
2022-08-21T02:43:20.025Z,90.84
2022-08-21T02:45:50.289Z,90.34
2022-08-21T02:48:21.637Z,89.90
2022-08-21T02:50:56.021Z,90.60
2022-08-21T02:53:24.226Z,92.78
2022-08-21T02:55:53.416Z,93.71
2022-08-21T02:58:25.866Z,96.75
2022-08-21T03:00:54.441Z,96.06
2022-08-21T03:03:21.874Z,95.87
2022-08-21T03:05:49.882Z,96.10
2022-08-21T03:08:18.363Z,94.69
2022-08-21T03:10:50.231Z,94.18
2022-08-21T03:13:19.438Z,94.51
2022-08-21T03:15:47.040Z,96.69
2022-08-21T03:18:18.790Z,96.12
2022-08-21T03:20:46.551Z,97.37
2022-08-21T03:23:18.449Z,97.61
2022-08-21T03:25:47.653Z,97.41
2022-08-21T03:28:19.236Z,97.38
2022-08-21T03:30:49.507Z,96.91
2022-08-21T03:33:20.770Z,99.88
2022-08-21T03:35:59.148Z,96.92
2022-08-21T03:38:28.357Z,96.55
2022-08-21T03:40:55.430Z,96.79
2022-08-21T03:43:22.674Z,95.52
2022-08-21T03:45:49.915Z,95.77
2022-08-21T03:48:21.848Z,96.54
2022-08-21T03:50:49.205Z,96.81
2022-08-21T03:53:18.090Z,96.88
2022-08-21T03:55:47.867Z,96.37
2022-08-21T03:58:16.767Z,95.14
2022-08-21T04:00:46.095Z,95.52
2022-08-21T04:03:13.133Z,96.06
2022-08-21T04:05:41.575Z,97.20
2022-08-21T04:08:08.561Z,96.91
2022-08-21T04:10:38.945Z,98.92
2022-08-21T04:13:09.085Z,97.79
2022-08-21T04:15:36.724Z,98.15
2022-08-21T04:18:06.164Z,99.10
2022-08-21T04:20:35.860Z,99.37
2022-08-21T04:23:04.926Z,99.27
2022-08-21T04:25:32.047Z,98.11
2022-08-21T04:27:59.381Z,98.12
2022-08-21T04:30:28.760Z,97.83
2022-08-21T04:32:59.214Z,97.18
2022-08-21T04:35:29.188Z,97.64
2022-08-21T04:37:56.676Z,97.34
2022-08-21T04:40:28.609Z,97.23
2022-08-21T04:42:59.026Z,97.19
2022-08-21T04:45:29.455Z,99.00
2022-08-21T04:48:00.315Z,97.90
2022-08-21T04:50:37.382Z,96.07
2022-08-21T04:53:06.052Z,95.33
2022-08-21T04:55:34.786Z,93.79
2022-08-21T04:58:02.416Z,91.17
2022-08-21T05:00:29.478Z,88.54
2022-08-21T05:02:58.216Z,87.31
2022-08-21T05:05:26.574Z,84.23
2022-08-21T05:07:54.649Z,81.96
2022-08-21T05:10:21.903Z,79.92
2022-08-21T05:12:50.515Z,77.11
2022-08-21T05:15:17.430Z,77.39
2022-08-21T05:17:44.336Z,76.27
2022-08-21T05:20:20.895Z,75.11
2022-08-21T05:22:48.041Z,72.28
2022-08-21T05:25:14.942Z,70.25
2022-08-21T05:27:43.749Z,69.73
2022-08-21T05:30:12.877Z,70.60
2022-08-21T05:32:40.132Z,67.44
2022-08-21T05:35:09.127Z,66.43
2022-08-21T05:37:36.448Z,64.65
2022-08-21T05:40:22.633Z,63.94
2022-08-21T05:42:54.422Z,62.49
2022-08-21T05:45:42.707Z,60.34
2022-08-21T05:48:13.912Z,57.08
2022-08-21T05:50:41.717Z,60.66
2022-08-21T05:53:10.404Z,57.40
2022-08-21T05:55:44.212Z,55.53
2022-08-21T05:58:13.274Z,53.28
2022-08-21T06:00:41.551Z,53.88
2022-08-21T06:03:12.927Z,51.04
2022-08-21T06:05:40.141Z,50.45
2022-08-21T06:08:06.916Z,56.89
2022-08-21T06:10:34.012Z,54.05
2022-08-21T06:13:01.132Z,51.94
2022-08-21T06:15:28.551Z,49.85
2022-08-21T06:17:56.834Z,47.48
2022-08-21T06:20:24.209Z,47.44
2022-08-21T06:22:51.352Z,50.74
2022-08-21T06:25:18.590Z,55.98
2022-08-21T06:27:45.949Z,58.41
2022-08-21T06:30:13.708Z,56.80
2022-08-21T06:32:40.980Z,59.99
2022-08-21T06:35:10.935Z,62.60
2022-08-21T06:37:38.334Z,60.32
2022-08-21T06:40:07.078Z,56.82
2022-08-21T06:42:41.541Z,58.88
2022-08-21T06:45:10.470Z,53.10
2022-08-21T06:47:37.373Z,52.93
2022-08-21T06:50:06.672Z,53.80
2022-08-21T06:52:35.343Z,49.10
2022-08-21T06:55:02.207Z,45.44
2022-08-21T06:57:29.140Z,42.79
2022-08-21T06:59:56.059Z,43.53
2022-08-21T07:02:23.158Z,42.66
2022-08-21T07:04:50.146Z,38.63
2022-08-21T07:07:17.028Z,38.01
2022-08-21T07:09:45.418Z,36.71
2022-08-21T07:12:13.295Z,35.96
2022-08-21T07:14:41.641Z,34.63
2022-08-21T07:17:08.767Z,36.23
2022-08-21T07:19:36.046Z,37.73
2022-08-21T07:22:03.636Z,36.58
2022-08-21T07:24:30.499Z,36.26
2022-08-21T07:26:58.682Z,35.29
2022-08-21T07:29:25.948Z,34.59
2022-08-21T07:31:52.816Z,34.46
2022-08-21T07:34:19.711Z,34.08
2022-08-21T07:36:46.730Z,33.41
2022-08-21T07:39:13.583Z,34.03
2022-08-21T07:41:40.511Z,33.82
2022-08-21T07:44:08.749Z,33.10
2022-08-21T07:46:39.455Z,33.60
2022-08-21T07:49:06.364Z,32.36
2022-08-21T07:51:34.355Z,32.08
2022-08-21T07:54:02.351Z,32.04
2022-08-21T07:56:32.203Z,32.65
2022-08-21T07:58:59.125Z,37.09
2022-08-21T08:01:27.549Z,39.16
2022-08-21T08:03:54.721Z,40.74
2022-08-21T08:06:21.719Z,42.64
2022-08-21T08:08:48.568Z,42.24
2022-08-21T08:11:15.906Z,40.59
2022-08-21T08:13:45.899Z,37.76
2022-08-21T08:16:13.805Z,35.07
2022-08-21T08:18:43.005Z,34.96
2022-08-21T08:21:11.596Z,37.28
2022-08-21T08:23:38.606Z,39.73
2022-08-21T08:26:05.671Z,40.69
2022-08-21T08:28:34.045Z,40.21
2022-08-21T08:31:01.732Z,41.13
2022-08-21T08:33:29.202Z,42.40
2022-08-21T08:35:57.784Z,42.80
2022-08-21T08:38:26.438Z,42.08
2022-08-21T08:41:04.894Z,40.94
2022-08-21T08:43:35.150Z,41.82
2022-08-21T08:46:11.119Z,43.74
2022-08-21T08:48:53.101Z,44.94
2022-08-21T08:51:34.712Z,45.76
2022-08-21T08:54:08.878Z,44.85
2022-08-21T08:56:36.949Z,45.80
2022-08-21T08:59:14.450Z,46.03
2022-08-21T09:01:43.228Z,45.73
2022-08-21T09:04:12.173Z,46.73
2022-08-21T09:06:59.195Z,46.75
2022-08-21T09:09:49.258Z,48.49
2022-08-21T09:12:31.670Z,47.15
2022-08-21T09:15:10.443Z,46.41
2022-08-21T09:18:16.209Z,47.39
2022-08-21T09:21:00.743Z,48.04
2022-08-21T09:23:47.251Z,45.69
2022-08-21T09:26:17.865Z,44.65
2022-08-21T09:28:45.801Z,44.61
2022-08-21T09:31:28.784Z,44.46
2022-08-21T09:34:01.089Z,44.00
2022-08-21T09:36:39.535Z,43.11
2022-08-21T09:39:11.139Z,42.44
2022-08-21T09:41:39.968Z,42.46
2022-08-21T09:44:09.570Z,43.03
2022-08-21T09:46:36.546Z,43.85
2022-08-21T09:49:06.867Z,42.70
2022-08-21T09:51:53.805Z,39.42
2022-08-21T09:54:31.979Z,38.87
2022-08-21T09:57:06.121Z,37.43
2022-08-21T09:59:37.092Z,37.46
2022-08-21T10:02:29.190Z,36.27
2022-08-21T10:05:07.071Z,36.86
2022-08-21T10:07:39.286Z,37.64
2022-08-21T10:10:18.270Z,39.67
2022-08-21T10:12:59.288Z,42.03
2022-08-21T10:15:42.391Z,41.51
2022-08-21T10:18:22.362Z,42.28
2022-08-21T10:21:03.400Z,40.75
2022-08-21T10:23:51.890Z,39.93
2022-08-21T10:26:38.746Z,38.66
2022-08-21T10:29:23.370Z,38.56
2022-08-21T10:32:03.718Z,36.67
2022-08-21T10:34:51.142Z,34.46
2022-08-21T10:37:37.696Z,34.68
2022-08-21T10:40:21.686Z,36.27
2022-08-21T10:43:09.412Z,37.44
2022-08-21T10:45:58.090Z,38.26
2022-08-21T10:48:35.192Z,37.71
2022-08-21T10:51:14.950Z,35.84
2022-08-21T10:54:05.734Z,35.85
2022-08-21T10:56:37.553Z,37.12
2022-08-21T10:59:32.418Z,35.39
2022-08-21T11:02:17.863Z,33.94
2022-08-21T11:04:57.196Z,32.71
2022-08-21T11:07:34.275Z,31.88
2022-08-21T11:10:11.775Z,32.33
2022-08-21T11:12:45.061Z,31.99
2022-08-21T11:15:34.363Z,31.66
2022-08-21T11:18:24.952Z,32.03
2022-08-21T11:21:05.418Z,31.38
2022-08-21T11:23:44.456Z,33.59
2022-08-21T11:26:20.105Z,37.18
2022-08-21T11:28:59.814Z,36.36
2022-08-21T11:31:52.573Z,36.58
2022-08-21T11:34:40.770Z,36.86
2022-08-21T11:37:30.413Z,35.46
2022-08-21T11:40:12.552Z,33.82
2022-08-21T11:42:51.154Z,31.55
2022-08-21T11:45:33.618Z,31.41
2022-08-21T11:48:17.201Z,31.19
2022-08-21T11:50:47.573Z,32.47
2022-08-21T11:53:27.299Z,33.37
2022-08-21T11:56:00.987Z,35.51
2022-08-21T11:58:36.572Z,35.74
2022-08-21T12:01:09.524Z,35.95
2022-08-21T12:03:44.125Z,35.69
2022-08-21T12:06:24.144Z,36.49
2022-08-21T12:09:01.713Z,35.73
2022-08-21T12:11:30.968Z,36.16
2022-08-21T12:14:12.447Z,38.19
2022-08-21T12:16:42.975Z,37.66
2022-08-21T12:19:14.922Z,36.43
2022-08-21T12:21:53.455Z,37.18
2022-08-21T12:24:36.953Z,37.22
2022-08-21T12:27:22.257Z,37.31
2022-08-21T12:29:52.848Z,39.10
2022-08-21T12:32:29.995Z,39.84
2022-08-21T12:35:07.959Z,39.07
2022-08-21T12:37:51.016Z,39.86
2022-08-21T12:40:24.825Z,38.55
2022-08-21T12:42:59.245Z,38.71
2022-08-21T12:45:32.326Z,40.04
2022-08-21T12:48:07.397Z,38.50
2022-08-21T12:50:41.988Z,37.54
2022-08-21T12:53:25.832Z,36.31
2022-08-21T12:55:53.733Z,38.15
2022-08-21T12:58:23.487Z,39.48
2022-08-21T13:00:55.609Z,39.15
2022-08-21T13:03:24.216Z,39.24
2022-08-21T13:05:53.431Z,39.61
2022-08-21T13:08:23.403Z,39.89
2022-08-21T13:11:00.564Z,37.99
2022-08-21T13:13:44.658Z,37.26
2022-08-21T13:16:25.880Z,35.76
2022-08-21T13:18:58.048Z,34.78
2022-08-21T13:21:33.256Z,36.25
2022-08-21T13:24:41.323Z,35.02
2022-08-21T13:27:22.014Z,34.78
2022-08-21T13:29:53.781Z,35.69
2022-08-21T13:32:29.141Z,34.62
2022-08-21T13:34:56.149Z,34.72
2022-08-21T13:37:27.602Z,34.81
2022-08-21T13:39:54.682Z,34.25
2022-08-21T13:42:29.943Z,34.62
2022-08-21T13:44:57.042Z,35.16
2022-08-21T13:47:24.008Z,35.57
2022-08-21T13:49:59.067Z,34.63
2022-08-21T13:52:28.117Z,35.00
2022-08-21T13:54:58.411Z,35.68
2022-08-21T13:57:30.203Z,35.21
2022-08-21T14:00:15.667Z,35.92
2022-08-21T14:02:48.598Z,34.56
2022-08-21T14:05:25.873Z,35.14
2022-08-21T14:08:05.788Z,35.34
2022-08-21T14:10:42.062Z,35.85
2022-08-21T14:13:34.754Z,35.62
2022-08-21T14:16:17.008Z,35.59
2022-08-21T14:18:55.064Z,35.36
2022-08-21T14:21:31.853Z,34.97
2022-08-21T14:24:09.566Z,35.13
2022-08-21T14:26:46.570Z,34.71
2022-08-21T14:29:19.542Z,34.59
2022-08-21T14:31:53.601Z,34.24
2022-08-21T14:34:22.274Z,33.70
2022-08-21T14:36:50.880Z,34.13
2022-08-21T14:39:18.515Z,34.29
2022-08-21T14:41:46.734Z,33.04
2022-08-21T14:44:16.628Z,33.50
2022-08-21T14:46:54.101Z,34.20
2022-08-21T14:49:26.545Z,34.17
2022-08-21T14:51:54.163Z,33.65
2022-08-21T14:54:22.488Z,33.85
2022-08-21T14:56:58.646Z,32.57
2022-08-21T14:59:26.820Z,34.63
2022-08-21T15:01:54.255Z,32.54
2022-08-21T15:04:24.577Z,33.76
2022-08-21T15:06:51.730Z,33.57
2022-08-21T15:09:18.600Z,33.34
2022-08-21T15:11:45.494Z,32.20
2022-08-21T15:14:21.637Z,32.91
2022-08-21T15:16:51.747Z,32.04
2022-08-21T15:19:19.535Z,33.19
2022-08-21T15:21:46.438Z,32.77
2022-08-21T15:24:13.435Z,32.67
2022-08-21T15:26:40.500Z,32.04
2022-08-21T15:29:09.307Z,32.18
2022-08-21T15:31:53.009Z,32.78
2022-08-21T15:34:20.922Z,31.90
2022-08-21T15:36:51.867Z,32.28
2022-08-21T15:39:24.791Z,33.09
2022-08-21T15:41:51.751Z,33.18
2022-08-21T15:44:19.612Z,32.55
2022-08-21T15:46:46.539Z,31.47
2022-08-21T15:49:15.158Z,33.14
2022-08-21T15:51:43.681Z,32.07
2022-08-21T15:54:11.202Z,32.38
2022-08-21T15:56:41.512Z,32.01
2022-08-21T15:59:16.496Z,31.32
2022-08-21T16:01:44.759Z,31.61
2022-08-21T16:04:21.894Z,33.05
2022-08-21T16:06:54.190Z,31.38
2022-08-21T16:09:23.321Z,33.13
2022-08-21T16:11:51.200Z,32.93
2022-08-21T16:14:18.710Z,32.94
2022-08-21T16:16:48.435Z,34.06
2022-08-21T16:19:17.035Z,31.45
2022-08-21T16:21:43.875Z,31.28
2022-08-21T16:24:10.871Z,31.96
2022-08-21T16:26:37.867Z,33.63
2022-08-21T16:29:06.730Z,34.25
2022-08-21T16:31:35.043Z,31.30
2022-08-21T16:34:02.758Z,31.25
2022-08-21T16:36:31.411Z,31.29
2022-08-21T16:39:00.861Z,32.84
2022-08-21T16:41:35.789Z,32.63
2022-08-21T16:44:04.562Z,33.98
2022-08-21T16:46:36.398Z,32.26
2022-08-21T16:49:04.605Z,33.16
2022-08-21T16:51:32.786Z,32.86
2022-08-21T16:54:00.574Z,32.92
2022-08-21T16:56:27.950Z,33.11
2022-08-21T16:58:57.572Z,32.60
2022-08-21T17:01:30.114Z,33.16
2022-08-21T17:03:57.785Z,34.54
2022-08-21T17:06:29.068Z,33.74
2022-08-21T17:08:58.257Z,34.48
2022-08-21T17:11:36.960Z,33.91
2022-08-21T17:14:10.553Z,35.03
2022-08-21T17:16:39.628Z,35.82
2022-08-21T17:19:08.094Z,35.32
2022-08-21T17:21:36.054Z,35.36
2022-08-21T17:24:05.629Z,36.01
2022-08-21T17:26:33.212Z,37.55
2022-08-21T17:29:00.224Z,36.36
2022-08-21T17:31:28.320Z,36.71
2022-08-21T17:33:56.375Z,37.02
2022-08-21T17:36:27.817Z,37.17
2022-08-21T17:38:57.139Z,36.52
2022-08-21T17:41:26.405Z,37.60
2022-08-21T17:43:54.693Z,36.98
2022-08-21T17:46:26.728Z,37.40
2022-08-21T17:48:54.478Z,37.67
2022-08-21T17:51:21.759Z,37.69
2022-08-21T17:53:49.149Z,37.11
2022-08-21T17:56:18.728Z,38.10
2022-08-21T17:58:50.802Z,39.29
2022-08-21T18:01:19.563Z,38.73
2022-08-21T18:03:49.173Z,37.25
2022-08-21T18:06:18.156Z,37.76
2022-08-21T18:08:45.673Z,38.57
2022-08-21T18:11:18.035Z,39.23
2022-08-21T18:13:55.218Z,38.31
2022-08-21T18:16:23.318Z,37.96
2022-08-21T18:18:50.662Z,39.01
2022-08-21T18:21:17.587Z,38.99
2022-08-21T18:23:45.178Z,38.17
2022-08-21T18:26:16.583Z,40.11
2022-08-21T18:28:44.257Z,39.31
2022-08-21T18:31:13.655Z,38.05
2022-08-21T18:33:57.007Z,39.32
2022-08-21T18:36:27.204Z,39.48
2022-08-21T18:38:54.350Z,39.82
2022-08-21T18:41:22.517Z,40.79
2022-08-21T18:43:49.812Z,43.96
2022-08-21T18:46:19.076Z,40.77
2022-08-21T18:48:46.027Z,43.07
2022-08-21T18:51:13.279Z,45.25
2022-08-21T18:53:40.392Z,45.44
2022-08-21T18:56:08.229Z,49.98
2022-08-21T18:58:43.398Z,45.17
2022-08-21T19:01:10.642Z,46.64
2022-08-21T19:03:39.844Z,47.79
2022-08-21T19:08:55.644Z,48.74
2022-08-21T19:11:25.736Z,47.51
2022-08-21T19:13:54.223Z,46.37
2022-08-21T19:16:22.360Z,48.41
2022-08-21T19:18:51.193Z,51.02
2022-08-21T19:21:18.258Z,50.21
2022-08-21T19:23:45.337Z,54.90
2022-08-21T19:26:12.310Z,56.36
2022-08-21T19:28:44.771Z,55.73
2022-08-21T19:31:16.672Z,56.80
2022-08-21T19:33:57.711Z,57.70
2022-08-21T19:36:28.870Z,58.05
2022-08-21T19:38:56.080Z,58.91
2022-08-21T19:41:27.075Z,59.07
2022-08-21T19:43:58.857Z,58.93
2022-08-21T19:46:32.196Z,60.37
2022-08-21T19:49:02.701Z,64.16
2022-08-21T19:51:29.968Z,63.16
2022-08-21T19:53:57.500Z,63.31
2022-08-21T19:56:31.371Z,64.06
2022-08-21T19:58:59.381Z,64.60
2022-08-21T20:01:28.131Z,65.47
2022-08-21T20:03:57.216Z,67.36
2022-08-21T20:06:26.124Z,64.95
2022-08-21T20:08:55.057Z,64.33
2022-08-21T20:11:31.288Z,63.46
2022-08-21T20:16:52.461Z,63.67
2022-08-21T20:19:20.703Z,65.03
2022-08-21T20:21:49.437Z,65.28
2022-08-21T20:24:16.523Z,64.80
2022-08-21T20:26:49.144Z,62.22
2022-08-21T20:29:23.907Z,65.42
2022-08-21T20:31:51.553Z,66.38
2022-08-21T20:34:18.539Z,65.66
2022-08-21T20:36:45.783Z,66.39
2022-08-21T20:39:15.861Z,66.31
2022-08-21T20:41:44.154Z,67.06
2022-08-21T20:44:16.950Z,67.30
2022-08-21T20:46:44.157Z,65.56
2022-08-21T20:49:21.055Z,67.91
2022-08-21T20:51:52.535Z,68.69
2022-08-21T20:54:33.510Z,69.97
2022-08-21T21:00:03.450Z,69.78
2022-08-21T21:02:49.554Z,69.57
2022-08-21T21:05:22.104Z,68.63
2022-08-21T21:08:02.034Z,67.40
2022-08-21T21:10:38.410Z,66.07
2022-08-21T21:13:17.403Z,69.89
2022-08-21T21:15:47.695Z,70.03
2022-08-21T21:18:30.101Z,71.00
2022-08-21T21:21:06.315Z,74.39
2022-08-21T21:23:45.354Z,72.82
2022-08-21T21:26:29.122Z,71.55
2022-08-21T21:29:10.576Z,71.34
2022-08-21T21:31:38.432Z,71.31
2022-08-21T21:34:05.566Z,70.69
2022-08-21T21:36:51.489Z,71.25
2022-08-21T21:39:36.189Z,69.86
2022-08-21T21:42:32.838Z,69.08
2022-08-21T21:45:18.387Z,69.35
2022-08-21T21:48:04.449Z,69.80
2022-08-21T21:50:50.856Z,66.53
2022-08-21T21:53:41.175Z,63.62
2022-08-21T21:56:27.443Z,65.75
2022-08-21T21:59:19.754Z,70.26
2022-08-21T22:02:02.020Z,73.54
2022-08-21T22:04:51.324Z,74.19
2022-08-21T22:07:46.793Z,73.57
2022-08-21T22:10:30.693Z,73.68
2022-08-21T22:16:05.531Z,71.71
2022-08-21T22:18:45.085Z,72.10
2022-08-21T22:21:23.888Z,69.80
2022-08-21T22:24:01.875Z,65.60
2022-08-21T22:26:36.536Z,65.59
2022-08-21T22:29:09.876Z,66.04
2022-08-21T22:31:38.477Z,66.82
2022-08-21T22:34:17.768Z,69.06
2022-08-21T22:36:54.626Z,68.01
2022-08-21T22:39:33.092Z,64.37
2022-08-21T22:42:10.868Z,65.64
2022-08-21T22:44:51.101Z,67.29
2022-08-21T22:47:30.399Z,68.61
2022-08-21T22:50:04.364Z,68.61
2022-08-21T22:52:36.654Z,71.05
2022-08-21T22:55:24.629Z,71.86
2022-08-21T22:58:07.941Z,73.68
2022-08-21T23:00:51.328Z,74.20
2022-08-21T23:03:32.002Z,73.16
2022-08-21T23:06:03.142Z,73.96
2022-08-21T23:08:40.633Z,73.64
2022-08-21T23:11:17.726Z,71.11
2022-08-21T23:13:48.554Z,70.43
2022-08-21T23:16:47.220Z,70.85
2022-08-21T23:19:37.951Z,70.08
2022-08-21T23:22:33.577Z,69.78
2022-08-21T23:28:23.043Z,70.42
2022-08-21T23:31:05.453Z,72.62
2022-08-21T23:34:00.483Z,73.17
2022-08-21T23:36:53.801Z,75.59
2022-08-21T23:39:46.736Z,77.97
2022-08-21T23:42:46.483Z,79.58
2022-08-21T23:45:33.281Z,75.62
2022-08-21T23:48:19.745Z,74.41
2022-08-21T23:51:01.290Z,73.13
2022-08-21T23:53:50.631Z,71.37
2022-08-21T23:56:33.370Z,71.67
2022-08-21T23:59:18.482Z,72.93
